Map

Track Data

SID SEASON NUMBER BASIN SUBBASIN NAME ISO_TIME NATURE LAT LON WMO_WIND WMO_PRES WMO_AGENCY TRACK_TYPE DIST2LAND LANDFALL IFLAG USA_AGENCY USA_ATCF_ID USA_LAT USA_LON USA_RECORD USA_STATUS USA_WIND USA_PRES USA_SSHS USA_R34_NE USA_R34_SE USA_R34_SW USA_R34_NW USA_R50_NE USA_R50_SE USA_R50_SW USA_R50_NW USA_R64_NE USA_R64_SE USA_R64_SW USA_R64_NW USA_POCI USA_ROCI USA_RMW USA_EYE TOKYO_LAT TOKYO_LON TOKYO_GRADE TOKYO_WIND TOKYO_PRES TOKYO_R50_DIR TOKYO_R50_LONG TOKYO_R50_SHORT TOKYO_R30_DIR TOKYO_R30_LONG TOKYO_R30_SHORT TOKYO_LAND CMA_LAT CMA_LON CMA_CAT CMA_WIND CMA_PRES HKO_LAT HKO_LON HKO_CAT HKO_WIND HKO_PRES NEWDELHI_LAT NEWDELHI_LON NEWDELHI_GRADE NEWDELHI_WIND NEWDELHI_PRES NEWDELHI_CI NEWDELHI_DP NEWDELHI_POCI REUNION_LAT REUNION_LON REUNION_TYPE REUNION_WIND REUNION_PRES REUNION_TNUM REUNION_CI REUNION_RMW REUNION_R34_NE REUNION_R34_SE REUNION_R34_SW REUNION_R34_NW REUNION_R50_NE REUNION_R50_SE REUNION_R50_SW REUNION_R50_NW REUNION_R64_NE REUNION_R64_SE REUNION_R64_SW REUNION_R64_NW BOM_LAT BOM_LON BOM_TYPE BOM_WIND BOM_PRES BOM_TNUM BOM_CI BOM_RMW BOM_R34_NE BOM_R34_SE BOM_R34_SW BOM_R34_NW BOM_R50_NE BOM_R50_SE BOM_R50_SW BOM_R50_NW BOM_R64_NE BOM_R64_SE BOM_R64_SW BOM_R64_NW BOM_ROCI BOM_POCI BOM_EYE BOM_POS_METHOD BOM_PRES_METHOD NADI_LAT NADI_LON NADI_CAT NADI_WIND NADI_PRES WELLINGTON_LAT WELLINGTON_LON WELLINGTON_WIND WELLINGTON_PRES DS824_LAT DS824_LON DS824_STAGE DS824_WIND DS824_PRES TD9636_LAT TD9636_LON TD9636_STAGE TD9636_WIND TD9636_PRES TD9635_LAT TD9635_LON TD9635_WIND TD9635_PRES TD9635_ROCI NEUMANN_LAT NEUMANN_LON NEUMANN_CLASS NEUMANN_WIND NEUMANN_PRES MLC_LAT MLC_LON MLC_CLASS MLC_WIND MLC_PRES USA_GUST BOM_GUST BOM_GUST_PER REUNION_GUST REUNION_GUST_PER USA_SEAHGT USA_SEARAD_NE USA_SEARAD_SE USA_SEARAD_SW USA_SEARAD_NW STORM_SPEED STORM_DIR
2022216N10268 2022 43 EP MM HOWARD 2022-08-03 18:00:00 NR 9.70000 -92.0000 PROVISIONAL 476 476 O_____________ nhc_working_bt EP092022 9.70000 -92.0000 DB 20 -3 1011 120 80 8 276
2022216N10268 2022 43 EP MM HOWARD 2022-08-03 21:00:00 NR 9.74012 -92.4100 PROVISIONAL 485 477 P_____________ EP092022 9.74012 -92.4100 DB 20 -3 1011 120 80 8 277
2022216N10268 2022 43 EP MM HOWARD 2022-08-04 00:00:00 NR 9.80000 -92.8000 PROVISIONAL 487 484 O_____________ nhc_working_bt EP092022 9.80000 -92.8000 DB 20 -3 1011 120 80 8 282
2022216N10268 2022 43 EP MM HOWARD 2022-08-04 03:00:00 NR 9.89244 -93.1575 PROVISIONAL 493 492 P_____________ EP092022 9.89244 -93.1575 DB 22 -3 1011 135 80 7 286
2022216N10268 2022 43 EP MM HOWARD 2022-08-04 06:00:00 NR 10.0000 -93.5000 PROVISIONAL 498 498 O_____________ nhc_working_bt EP092022 10.0000 -93.5000 DB 25 1008 -3 1011 150 80 7 287
2022216N10268 2022 43 EP MM HOWARD 2022-08-04 09:00:00 NR 10.0848 -93.8126 PROVISIONAL 505 505 P_____________ EP092022 10.0848 -93.8126 DB 25 1008 -3 1011 150 80 7 286
2022216N10268 2022 43 EP MM HOWARD 2022-08-04 12:00:00 NR 10.2000 -94.2000 PROVISIONAL 518 518 O_____________ nhc_working_bt EP092022 10.2000 -94.2000 DB 25 1008 -3 1011 150 80 10 288
2022216N10268 2022 43 EP MM HOWARD 2022-08-04 15:00:00 NR 10.3775 -94.7476 PROVISIONAL 529 529 P_____________ EP092022 10.3775 -94.7476 DB 27 1007 -3 1011 150 80 12 289
2022216N10268 2022 43 EP MM HOWARD 2022-08-04 18:00:00 NR 10.6000 -95.4000 PROVISIONAL 558 541 O_____________ nhc_working_bt EP092022 10.6000 -95.4000 DB 30 1007 -3 1011 150 80 14 289
2022216N10268 2022 43 EP MM HOWARD 2022-08-04 21:00:00 NR 10.8272 -96.0478 PROVISIONAL 541 503 P_____________ EP092022 10.8272 -96.0478 DB 30 1007 -3 1011 150 80 15 290
2022216N10268 2022 43 EP MM HOWARD 2022-08-05 00:00:00 NR 11.1000 -96.8000 PROVISIONAL 504 480 O_____________ nhc_working_bt EP092022 11.1000 -96.8000 DB 30 1007 -3 1011 150 80 18 291
2022216N10268 2022 43 EP MM HOWARD 2022-08-05 03:00:00 NR 11.4577 -97.7272 PROVISIONAL 474 472 P_____________ EP092022 11.4577 -97.7272 DB 30 1007 -3 1011 150 80 20 291
2022216N10268 2022 43 EP MM HOWARD 2022-08-05 06:00:00 NR 11.8000 -98.7000 PROVISIONAL 480 472 O_____________ nhc_working_bt EP092022 11.8000 -98.7000 DB 30 1007 -3 1011 150 80 19 288
2022216N10268 2022 43 EP MM HOWARD 2022-08-05 09:00:00 NR 12.0442 -99.5277 PROVISIONAL 483 477 P_____________ EP092022 12.0442 -99.5277 DB 30 1007 -3 1011 150 80 17 284
2022216N10268 2022 43 EP MM HOWARD 2022-08-05 12:00:00 NR 12.2000 -100.400 PROVISIONAL 498 498 O_____________ nhc_working_bt EP092022 12.2000 -100.400 DB 30 1007 -3 1011 150 80 20 276
2022216N10268 2022 43 EP MM HOWARD 2022-08-05 15:00:00 NR 12.2660 -101.568 PROVISIONAL 533 533 P_____________ EP092022 12.2660 -101.568 DB 30 1007 -3 1011 150 70 22 273
2022216N10268 2022 43 EP MM HOWARD 2022-08-05 18:00:00 NR 12.3000 -102.600 PROVISIONAL 581 581 O_____________ nhc_working_bt EP092022 12.3000 -102.600 DB 30 1007 -3 1011 150 60 15 273
2022216N10268 2022 43 EP MM HOWARD 2022-08-05 21:00:00 NR 12.3541 -103.090 PROVISIONAL 589 587 P_____________ EP092022 12.3541 -103.090 DB 30 1007 -3 1011 150 60 8 284
2022216N10268 2022 43 EP MM HOWARD 2022-08-06 00:00:00 NR 12.5000 -103.400 PROVISIONAL 591 581 O_____________ nhc_working_bt EP092022 12.5000 -103.400 DB 30 1007 -3 1011 150 60 40 9 300
2022216N10268 2022 43 EP MM HOWARD 2022-08-06 03:00:00 NR 12.8050 -103.892 PROVISIONAL 586 567 P_____________ EP092022 12.8050 -103.892 DB 30 1007 -3 1010 150 60 12 306
2022216N10268 2022 43 EP MM HOWARD 2022-08-06 06:00:00 NR 13.2000 -104.400 PROVISIONAL 570 542 O_____________ nhc_working_bt EP092022 13.2000 -104.400 DB 30 1007 -3 1010 150 60 40 12 310
2022216N10268 2022 43 EP MM HOWARD 2022-08-06 09:00:00 NR 13.5998 -104.850 PROVISIONAL 546 514 P_____________ EP092022 13.5998 -104.850 DB 30 1006 -3 1010 165 60 12 314
2022216N10268 2022 43 EP MM HOWARD 2022-08-06 12:00:00 TS 14.0333 -105.300 PROVISIONAL 518 500 O_____________ nhc_working_bt EP092022 14.0000 -105.300 TD 30 1006 -1 1010 180 60 40 12 310
2022216N10268 2022 43 EP MM HOWARD 2022-08-06 15:00:00 TS 14.3726 -105.790 PROVISIONAL 500 495 P_____________ EP092022 14.3574 -105.785 TD 30 1006 -1 1010 180 60 12 305
2022216N10268 2022 43 EP MM HOWARD 2022-08-06 18:00:00 TS 14.7000 -106.300 PROVISIONAL 501 496 O_____________ nhc_working_bt EP092022 14.7000 -106.300 TD 30 1006 -1 1010 180 60 40 12 304
2022216N10268 2022 43 EP MM HOWARD 2022-08-06 21:00:00 TS 15.0523 -106.828 PROVISIONAL 501 501 P_____________ EP092022 15.0573 -106.828 TD 30 1006 -1 1010 180 55 13 303
2022216N10268 2022 43 EP MM HOWARD 2022-08-07 00:00:00 TS 15.4000 -107.400 PROVISIONAL 506 503 O_____________ nhc_working_bt EP092022 15.4000 -107.400 TD 30 1006 -1 1010 180 50 40 14 299
2022216N10268 2022 43 EP MM HOWARD 2022-08-07 03:00:00 TS 15.7227 -108.065 PROVISIONAL 525 516 P_____________ EP092022 15.7227 -108.065 TD 30 1006 -1 1010 180 50 14 296
2022216N10268 2022 43 EP MM HOWARD 2022-08-07 06:00:00 TS 16.0000 -108.700 PROVISIONAL 546 546 O_____________ nhc_working_bt EP092022 16.0000 -108.700 TD 30 1006 -1 1010 180 50 40 12 293
2022216N10268 2022 43 EP MM HOWARD 2022-08-07 09:00:00 TS 16.1847 -109.188 PROVISIONAL 568 568 P_____________ EP092022 16.1847 -109.188 TD 30 1006 -1 1010 180 50 10 295
2022216N10268 2022 43 EP MM HOWARD 2022-08-07 12:00:00 TS 16.4000 -109.600 PROVISIONAL 585 585 O_____________ nhc_working_bt EP092022 16.4000 -109.600 TD 30 1006 -1 1010 180 50 40 12 30 30 10 307
2022216N10268 2022 43 EP MM HOWARD 2022-08-07 15:00:00 TS 16.7698 -110.000 PROVISIONAL 592 592 P_____________ EP092022 16.7698 -110.000 TD 32 1005 -1 1010 165 45 12 30 30 11 316
2022216N10268 2022 43 EP MM HOWARD 2022-08-07 18:00:00 TS 17.2000 -110.400 PROVISIONAL 603 598 O_____________ nhc_working_bt EP092022 17.2000 -110.400 TS 35 1004 0 50 1010 150 40 45 12 30 30 12 316
2022216N10268 2022 43 EP MM HOWARD 2022-08-07 21:00:00 TS 17.5999 -110.843 PROVISIONAL 598 562 P_____________ EP092022 17.5999 -110.843 TS 37 1003 0 55 1010 150 40 12 52 45 12 313
2022216N10268 2022 43 EP MM HOWARD 2022-08-08 00:00:00 TS 18.0000 -111.300 PROVISIONAL 564 533 O_____________ nhc_working_bt EP092022 18.0000 -111.300 TS 40 1002 0 60 1010 150 40 45 12 75 60 12 312
2022216N10268 2022 43 EP MM HOWARD 2022-08-08 03:00:00 TS 18.3849 -111.750 PROVISIONAL 536 512 P_____________ EP092022 18.3849 -111.750 TS 42 1001 0 45 1010 150 35 12 75 60 12 313
2022216N10268 2022 43 EP MM HOWARD 2022-08-08 06:00:00 TS 18.8000 -112.200 PROVISIONAL 512 484 O_____________ nhc_working_bt EP092022 18.8000 -112.200 TS 45 1000 0 30 20 30 1011 150 30 55 12 75 60 13 317
2022216N10268 2022 43 EP MM HOWARD 2022-08-08 09:00:00 TS 19.3224 -112.657 PROVISIONAL 490 472 P_____________ EP092022 19.3224 -112.657 TS 50 998 0 40 25 35 10 10 1011 150 25 12 82 52 13 320
2022216N10268 2022 43 EP MM HOWARD 2022-08-08 12:00:00 TS 19.8000 -113.100 PROVISIONAL 472 470 O_____________ nhc_working_bt EP092022 19.8000 -113.100 TS 55 996 0 50 30 30 40 20 20 1011 150 20 65 12 90 45 15 45 11 314
2022216N10268 2022 43 EP MM HOWARD 2022-08-08 15:00:00 TS 20.0798 -113.501 PROVISIONAL 478 478 P_____________ EP092022 20.0798 -113.501 TS 62 991 0 50 37 37 45 22 22 1011 150 17 12 90 45 15 45 9 304
2022216N10268 2022 43 EP MM HOWARD 2022-08-08 18:00:00 TS 20.3000 -113.900 PROVISIONAL 496 496 O_____________ nhc_working_bt EP092022 20.3000 -113.900 HU 70 987 1 50 45 45 50 25 25 15 25 15 15 1011 150 15 15 85 12 90 45 15 45 9 303
2022216N10268 2022 43 EP MM HOWARD 2022-08-08 21:00:00 TS 20.5999 -114.343 PROVISIONAL 505 500 P_____________ EP092022 20.5999 -114.343 HU 70 987 1 50 42 42 50 25 25 15 25 15 15 1011 150 15 12 90 45 30 52 10 305
2022216N10268 2022 43 EP MM HOWARD 2022-08-09 00:00:00 TS 20.9000 -114.800 PROVISIONAL 506 503 O_____________ nhc_working_bt EP092022 20.9000 -114.800 HU 70 987 1 50 40 40 50 25 25 15 25 15 15 1011 150 15 85 12 90 45 45 60 10 303
2022216N10268 2022 43 EP MM HOWARD 2022-08-09 03:00:00 TS 21.1574 -115.253 PROVISIONAL 510 508 P_____________ EP092022 21.1574 -115.258 HU 70 987 1 50 40 40 50 25 25 15 25 15 15 1010 150 15 12 90 45 45 75 10 301
2022216N10268 2022 43 EP MM HOWARD 2022-08-09 06:00:00 TS 21.4000 -115.700 PROVISIONAL 521 520 O_____________ nhc_working_bt EP092022 21.4000 -115.700 HU 70 987 1 50 40 40 50 25 25 15 25 15 15 1009 150 15 85 12 90 45 45 90 10 301
2022216N10268 2022 43 EP MM HOWARD 2022-08-09 09:00:00 TS 21.6574 -116.146 PROVISIONAL 527 527 P_____________ EP092022 21.6573 -116.108 HU 72 985 1 50 40 40 50 25 25 15 25 15 15 1009 135 15 10 302
2022216N10268 2022 43 EP MM HOWARD 2022-08-09 12:00:00 TS 21.9000 -116.567 PROVISIONAL 553 553 O_____________ nhc_working_bt EP092022 21.9000 -116.500 HU 75 983 1 50 40 40 50 25 25 15 25 15 15 1010 120 15 90 9 300
2022216N10268 2022 43 EP MM HOWARD 2022-08-09 15:00:00 TS 22.0924 -116.946 PROVISIONAL 566 566 P_____________ EP092022 22.0925 -116.908 HU 70 986 1 50 40 40 50 25 25 15 25 15 15 1011 120 15 8 300
2022216N10268 2022 43 EP MM HOWARD 2022-08-09 18:00:00 TS 22.3000 -117.300 PROVISIONAL 589 589 O_____________ nhc_working_bt EP092022 22.3000 -117.300 HU 65 989 1 50 40 40 50 25 25 15 25 15 15 1012 120 15 80 12 90 60 60 90 8 308
2022216N10268 2022 43 EP MM HOWARD 2022-08-09 21:00:00 TS 22.5999 -117.645 PROVISIONAL 601 595 P_____________ EP092022 22.5998 -117.650 HU 62 991 0 50 40 40 50 25 25 15 25 1012 120 15 12 82 60 67 82 9 313
2022216N10268 2022 43 EP MM HOWARD 2022-08-10 00:00:00 TS 22.9000 -118.000 PROVISIONAL 601 596 O_____________ nhc_working_bt EP092022 22.9000 -118.000 TS 60 994 0 50 40 40 50 25 25 15 25 1012 120 15 75 12 75 60 75 75 9 308
2022216N10268 2022 43 EP MM HOWARD 2022-08-10 03:00:00 TS 23.1223 -118.378 PROVISIONAL 609 601 P_____________ EP092022 23.1223 -118.378 TS 57 994 0 50 40 35 50 25 22 25 1011 120 15 12 75 52 75 82 8 299
2022216N10268 2022 43 EP MM HOWARD 2022-08-10 06:00:00 TS 23.3000 -118.800 PROVISIONAL 620 620 O_____________ nhc_working_bt EP092022 23.3000 -118.800 TS 55 995 0 50 40 30 50 25 20 25 1010 120 15 65 12 75 45 75 90 9 293
2022216N10268 2022 43 EP MM HOWARD 2022-08-10 09:00:00 TS 23.4649 -119.278 PROVISIONAL 636 636 P_____________ EP092022 23.4649 -119.278 TS 52 997 0 50 40 30 50 22 22 1011 125 17 12 67 37 67 82 10 288
2022216N10268 2022 43 EP MM HOWARD 2022-08-10 12:00:00 TS 23.6000 -119.800 PROVISIONAL 663 663 O_____________ nhc_working_bt EP092022 23.6000 -119.800 TS 50 999 0 50 40 30 50 20 20 1012 130 20 60 12 60 30 60 75 10 284
2022216N10268 2022 43 EP MM HOWARD 2022-08-10 15:00:00 TS 23.7075 -120.350 PROVISIONAL 701 701 P_____________ EP092022 23.7075 -120.350 TS 47 1001 0 50 40 50 1013 115 20 12 60 30 45 67 10 281
2022216N10268 2022 43 EP MM HOWARD 2022-08-10 18:00:00 TS 23.8000 -120.900 PROVISIONAL 733 733 O_____________ nhc_working_bt EP092022 23.8000 -120.900 TS 45 1004 0 50 40 50 1014 100 20 55 12 60 30 30 60 10 281
2022216N10268 2022 43 EP MM HOWARD 2022-08-10 21:00:00 TS 23.8977 -121.412 PROVISIONAL 767 767 P_____________ EP092022 23.8977 -121.412 TS 42 1005 0 45 45 1014 130 20 9 282
2022216N10268 2022 43 EP MM HOWARD 2022-08-11 00:00:00 DS 24.0000 -121.900 PROVISIONAL 804 O_____________ nhc_working_bt EP092022 24.0000 -121.900 LO 40 1006 -3 40 40 1015 160 20 50 9 283

About IBTrACS Database

This database is a web-friendly format of International Best Track Archive for Climate Stewardship (IBTrACS), a global best track data archive curated by NOAA dating back to 1842.

Updated: 2022-09-30